sensor_id;sensor_type;location;lat;lon;timestamp;temperature;humidity
64718;DHT22;62506;46.070;14.492;2023-07-13T00:00:37;25.80;64.50
64718;DHT22;62506;46.070;14.492;2023-07-13T00:03:03;25.80;64.40
64718;DHT22;62506;46.070;14.492;2023-07-13T00:05:29;25.80;64.50
64718;DHT22;62506;46.070;14.492;2023-07-13T00:07:54;25.90;64.50
64718;DHT22;62506;46.070;14.492;2023-07-13T00:10:21;25.90;64.40
64718;DHT22;62506;46.070;14.492;2023-07-13T00:12:47;25.90;64.40
64718;DHT22;62506;46.070;14.492;2023-07-13T00:15:18;25.90;64.40
64718;DHT22;62506;46.070;14.492;2023-07-13T00:17:48;25.90;64.40
64718;DHT22;62506;46.070;14.492;2023-07-13T00:20:14;25.90;64.40
64718;DHT22;62506;46.070;14.492;2023-07-13T00:22:39;25.90;64.40
64718;DHT22;62506;46.070;14.492;2023-07-13T00:25:05;25.90;64.20
64718;DHT22;62506;46.070;14.492;2023-07-13T00:27:31;25.90;64.20
64718;DHT22;62506;46.070;14.492;2023-07-13T00:29:57;25.90;64.30
64718;DHT22;62506;46.070;14.492;2023-07-13T00:32:22;25.90;64.20
64718;DHT22;62506;46.070;14.492;2023-07-13T00:34:50;25.90;64.20
64718;DHT22;62506;46.070;14.492;2023-07-13T00:37:16;25.80;64.30
64718;DHT22;62506;46.070;14.492;2023-07-13T00:39:41;25.80;64.30
64718;DHT22;62506;46.070;14.492;2023-07-13T00:42:07;25.80;64.40
64718;DHT22;62506;46.070;14.492;2023-07-13T00:44:32;25.90;64.40
64718;DHT22;62506;46.070;14.492;2023-07-13T00:46:58;25.90;64.50
64718;DHT22;62506;46.070;14.492;2023-07-13T00:49:25;25.80;64.40
64718;DHT22;62506;46.070;14.492;2023-07-13T00:51:53;25.80;64.50
64718;DHT22;62506;46.070;14.492;2023-07-13T00:54:28;25.90;64.50
64718;DHT22;62506;46.070;14.492;2023-07-13T00:56:55;25.90;64.60
64718;DHT22;62506;46.070;14.492;2023-07-13T00:59:22;25.80;64.50
64718;DHT22;62506;46.070;14.492;2023-07-13T01:01:49;25.80;64.60
64718;DHT22;62506;46.070;14.492;2023-07-13T01:04:15;25.80;64.70
64718;DHT22;62506;46.070;14.492;2023-07-13T01:06:40;25.80;64.80
64718;DHT22;62506;46.070;14.492;2023-07-13T01:09:09;25.80;64.90
64718;DHT22;62506;46.070;14.492;2023-07-13T01:11:35;25.80;65.00
64718;DHT22;62506;46.070;14.492;2023-07-13T01:14:01;25.80;65.10
64718;DHT22;62506;46.070;14.492;2023-07-13T01:16:28;25.80;65.20
64718;DHT22;62506;46.070;14.492;2023-07-13T01:18:55;25.80;64.80
64718;DHT22;62506;46.070;14.492;2023-07-13T01:21:23;25.80;64.70
64718;DHT22;62506;46.070;14.492;2023-07-13T01:23:49;25.80;64.50
64718;DHT22;62506;46.070;14.492;2023-07-13T01:26:14;25.80;64.60
64718;DHT22;62506;46.070;14.492;2023-07-13T01:28:43;25.80;64.60
64718;DHT22;62506;46.070;14.492;2023-07-13T01:31:08;25.80;64.60
64718;DHT22;62506;46.070;14.492;2023-07-13T01:33:36;25.80;64.70
64718;DHT22;62506;46.070;14.492;2023-07-13T01:36:01;25.80;64.70
64718;DHT22;62506;46.070;14.492;2023-07-13T01:38:27;25.80;64.70
64718;DHT22;62506;46.070;14.492;2023-07-13T01:40:53;25.80;64.60
64718;DHT22;62506;46.070;14.492;2023-07-13T01:43:19;25.80;64.60
64718;DHT22;62506;46.070;14.492;2023-07-13T01:45:44;25.80;64.70
64718;DHT22;62506;46.070;14.492;2023-07-13T01:48:10;25.80;64.70
64718;DHT22;62506;46.070;14.492;2023-07-13T01:50:36;25.80;64.70
64718;DHT22;62506;46.070;14.492;2023-07-13T01:53:02;25.80;64.70
64718;DHT22;62506;46.070;14.492;2023-07-13T01:55:28;25.80;64.70
64718;DHT22;62506;46.070;14.492;2023-07-13T01:57:54;25.80;64.70
64718;DHT22;62506;46.070;14.492;2023-07-13T02:00:19;25.80;64.60
64718;DHT22;62506;46.070;14.492;2023-07-13T02:02:45;25.80;64.70
64718;DHT22;62506;46.070;14.492;2023-07-13T02:05:11;25.80;64.70
64718;DHT22;62506;46.070;14.492;2023-07-13T02:07:37;25.80;64.60
64718;DHT22;62506;46.070;14.492;2023-07-13T02:10:03;25.80;64.50
64718;DHT22;62506;46.070;14.492;2023-07-13T02:12:28;25.80;64.40
64718;DHT22;62506;46.070;14.492;2023-07-13T02:14:54;25.80;64.30
64718;DHT22;62506;46.070;14.492;2023-07-13T02:17:19;25.80;64.20
64718;DHT22;62506;46.070;14.492;2023-07-13T02:19:45;25.80;64.20
64718;DHT22;62506;46.070;14.492;2023-07-13T02:22:11;25.80;64.10
64718;DHT22;62506;46.070;14.492;2023-07-13T02:24:36;25.80;64.00
64718;DHT22;62506;46.070;14.492;2023-07-13T02:27:03;25.80;64.10
64718;DHT22;62506;46.070;14.492;2023-07-13T02:29:29;25.80;64.00
64718;DHT22;62506;46.070;14.492;2023-07-13T02:31:54;25.80;64.10
64718;DHT22;62506;46.070;14.492;2023-07-13T02:34:20;25.90;64.10
64718;DHT22;62506;46.070;14.492;2023-07-13T02:36:45;25.90;64.10
64718;DHT22;62506;46.070;14.492;2023-07-13T02:39:11;25.80;64.00
64718;DHT22;62506;46.070;14.492;2023-07-13T02:41:37;25.80;64.00
64718;DHT22;62506;46.070;14.492;2023-07-13T02:44:02;25.80;64.10
64718;DHT22;62506;46.070;14.492;2023-07-13T02:46:35;25.80;64.10
64718;DHT22;62506;46.070;14.492;2023-07-13T02:49:01;25.80;64.00
64718;DHT22;62506;46.070;14.492;2023-07-13T02:51:27;25.80;64.10
64718;DHT22;62506;46.070;14.492;2023-07-13T02:53:52;25.80;64.20
64718;DHT22;62506;46.070;14.492;2023-07-13T02:56:23;25.80;64.20
64718;DHT22;62506;46.070;14.492;2023-07-13T02:58:48;25.90;64.20
64718;DHT22;62506;46.070;14.492;2023-07-13T03:01:14;25.90;64.20
64718;DHT22;62506;46.070;14.492;2023-07-13T03:03:44;25.90;64.20
64718;DHT22;62506;46.070;14.492;2023-07-13T03:06:10;25.90;64.20
64718;DHT22;62506;46.070;14.492;2023-07-13T03:08:36;25.90;64.20
64718;DHT22;62506;46.070;14.492;2023-07-13T03:11:05;25.80;64.20
64718;DHT22;62506;46.070;14.492;2023-07-13T03:13:31;25.90;65.20
64718;DHT22;62506;46.070;14.492;2023-07-13T03:15:57;25.90;65.10
64718;DHT22;62506;46.070;14.492;2023-07-13T03:18:22;25.90;65.20
64718;DHT22;62506;46.070;14.492;2023-07-13T03:20:51;25.90;64.20
64718;DHT22;62506;46.070;14.492;2023-07-13T03:23:16;25.90;64.20
64718;DHT22;62506;46.070;14.492;2023-07-13T03:25:42;25.90;64.30
64718;DHT22;62506;46.070;14.492;2023-07-13T03:28:07;25.80;64.20
64718;DHT22;62506;46.070;14.492;2023-07-13T03:30:33;25.90;64.20
64718;DHT22;62506;46.070;14.492;2023-07-13T03:32:58;25.90;64.20
64718;DHT22;62506;46.070;14.492;2023-07-13T03:35:24;25.90;64.20
64718;DHT22;62506;46.070;14.492;2023-07-13T03:37:49;25.80;64.20
64718;DHT22;62506;46.070;14.492;2023-07-13T03:40:16;25.80;64.20
64718;DHT22;62506;46.070;14.492;2023-07-13T03:42:42;25.80;64.20
64718;DHT22;62506;46.070;14.492;2023-07-13T03:45:07;25.80;64.30
64718;DHT22;62506;46.070;14.492;2023-07-13T03:47:33;25.80;64.30
64718;DHT22;62506;46.070;14.492;2023-07-13T03:49:59;25.80;64.30
64718;DHT22;62506;46.070;14.492;2023-07-13T03:52:24;25.80;64.30
64718;DHT22;62506;46.070;14.492;2023-07-13T03:54:50;25.80;64.40
64718;DHT22;62506;46.070;14.492;2023-07-13T03:57:15;25.80;64.40
64718;DHT22;62506;46.070;14.492;2023-07-13T03:59:40;25.80;64.50
64718;DHT22;62506;46.070;14.492;2023-07-13T04:02:06;25.80;64.50
64718;DHT22;62506;46.070;14.492;2023-07-13T04:04:32;25.80;64.50
64718;DHT22;62506;46.070;14.492;2023-07-13T04:06:57;25.70;62.80
64718;DHT22;62506;46.070;14.492;2023-07-13T04:09:23;25.40;63.00
64718;DHT22;62506;46.070;14.492;2023-07-13T04:11:49;25.20;63.10
64718;DHT22;62506;46.070;14.492;2023-07-13T04:14:15;25.00;63.50
64718;DHT22;62506;46.070;14.492;2023-07-13T04:16:40;24.90;63.60
64718;DHT22;62506;46.070;14.492;2023-07-13T04:19:06;24.80;63.30
64718;DHT22;62506;46.070;14.492;2023-07-13T04:21:31;24.80;64.10
64718;DHT22;62506;46.070;14.492;2023-07-13T04:23:57;24.80;64.00
64718;DHT22;62506;46.070;14.492;2023-07-13T04:26:23;24.70;63.70
64718;DHT22;62506;46.070;14.492;2023-07-13T04:28:49;24.70;64.00
64718;DHT22;62506;46.070;14.492;2023-07-13T04:31:15;24.70;64.20
64718;DHT22;62506;46.070;14.492;2023-07-13T04:33:40;24.70;64.40
64718;DHT22;62506;46.070;14.492;2023-07-13T04:36:08;24.70;64.10
64718;DHT22;62506;46.070;14.492;2023-07-13T04:38:35;24.80;64.80
64718;DHT22;62506;46.070;14.492;2023-07-13T04:41:01;24.70;64.50
64718;DHT22;62506;46.070;14.492;2023-07-13T04:43:27;24.60;65.30
64718;DHT22;62506;46.070;14.492;2023-07-13T04:45:52;24.60;66.00
64718;DHT22;62506;46.070;14.492;2023-07-13T04:48:18;24.60;66.40
64718;DHT22;62506;46.070;14.492;2023-07-13T04:50:45;24.60;66.30
64718;DHT22;62506;46.070;14.492;2023-07-13T04:53:10;24.60;66.30
64718;DHT22;62506;46.070;14.492;2023-07-13T04:55:36;24.60;66.30
64718;DHT22;62506;46.070;14.492;2023-07-13T04:58:02;24.50;66.80
64718;DHT22;62506;46.070;14.492;2023-07-13T05:00:28;24.50;67.30
64718;DHT22;62506;46.070;14.492;2023-07-13T05:02:54;24.30;68.00
64718;DHT22;62506;46.070;14.492;2023-07-13T05:05:20;24.30;67.90
64718;DHT22;62506;46.070;14.492;2023-07-13T05:07:46;24.40;67.40
64718;DHT22;62506;46.070;14.492;2023-07-13T05:10:11;24.50;67.00
64718;DHT22;62506;46.070;14.492;2023-07-13T05:12:37;24.60;66.60
64718;DHT22;62506;46.070;14.492;2023-07-13T05:15:03;24.60;66.20
64718;DHT22;62506;46.070;14.492;2023-07-13T05:17:28;24.60;66.10
64718;DHT22;62506;46.070;14.492;2023-07-13T05:19:54;24.60;66.10
64718;DHT22;62506;46.070;14.492;2023-07-13T05:22:19;24.60;66.70
64718;DHT22;62506;46.070;14.492;2023-07-13T05:24:45;24.40;67.20
64718;DHT22;62506;46.070;14.492;2023-07-13T05:27:11;24.20;67.40
64718;DHT22;62506;46.070;14.492;2023-07-13T05:29:39;24.20;66.60
64718;DHT22;62506;46.070;14.492;2023-07-13T05:32:04;24.20;67.20
64718;DHT22;62506;46.070;14.492;2023-07-13T05:34:30;24.30;67.30
64718;DHT22;62506;46.070;14.492;2023-07-13T05:36:56;24.40;67.00
64718;DHT22;62506;46.070;14.492;2023-07-13T05:39:21;24.60;66.80
64718;DHT22;62506;46.070;14.492;2023-07-13T05:41:47;24.70;66.40
64718;DHT22;62506;46.070;14.492;2023-07-13T05:44:12;24.80;66.10
64718;DHT22;62506;46.070;14.492;2023-07-13T05:46:38;24.90;66.10
64718;DHT22;62506;46.070;14.492;2023-07-13T05:49:03;24.90;65.90
64718;DHT22;62506;46.070;14.492;2023-07-13T05:51:29;24.90;65.80
64718;DHT22;62506;46.070;14.492;2023-07-13T05:53:55;25.00;65.70
64718;DHT22;62506;46.070;14.492;2023-07-13T05:56:20;25.00;65.70
64718;DHT22;62506;46.070;14.492;2023-07-13T05:58:47;25.00;65.60
64718;DHT22;62506;46.070;14.492;2023-07-13T06:01:13;25.10;65.60
64718;DHT22;62506;46.070;14.492;2023-07-13T06:03:39;25.10;65.70
64718;DHT22;62506;46.070;14.492;2023-07-13T06:06:05;25.10;65.70
64718;DHT22;62506;46.070;14.492;2023-07-13T06:08:31;25.10;65.70
64718;DHT22;62506;46.070;14.492;2023-07-13T06:11:04;25.10;65.70
64718;DHT22;62506;46.070;14.492;2023-07-13T06:13:29;25.10;65.70
64718;DHT22;62506;46.070;14.492;2023-07-13T06:15:55;25.10;65.70
64718;DHT22;62506;46.070;14.492;2023-07-13T06:18:20;25.20;65.70
64718;DHT22;62506;46.070;14.492;2023-07-13T06:20:46;25.20;65.70
64718;DHT22;62506;46.070;14.492;2023-07-13T06:23:11;25.20;65.60
64718;DHT22;62506;46.070;14.492;2023-07-13T06:25:37;25.30;65.70
64718;DHT22;62506;46.070;14.492;2023-07-13T06:28:02;25.20;65.60
64718;DHT22;62506;46.070;14.492;2023-07-13T06:30:28;25.30;65.60
64718;DHT22;62506;46.070;14.492;2023-07-13T06:32:53;25.30;65.50
64718;DHT22;62506;46.070;14.492;2023-07-13T06:35:19;25.30;65.50
64718;DHT22;62506;46.070;14.492;2023-07-13T06:37:44;25.30;65.40
64718;DHT22;62506;46.070;14.492;2023-07-13T06:40:10;25.40;65.50
64718;DHT22;62506;46.070;14.492;2023-07-13T06:42:36;25.40;65.50
64718;DHT22;62506;46.070;14.492;2023-07-13T06:45:01;25.40;65.40
64718;DHT22;62506;46.070;14.492;2023-07-13T06:47:27;25.40;65.30
64718;DHT22;62506;46.070;14.492;2023-07-13T06:49:53;25.40;65.20
64718;DHT22;62506;46.070;14.492;2023-07-13T06:52:18;25.50;65.10
64718;DHT22;62506;46.070;14.492;2023-07-13T06:54:44;25.50;65.10
64718;DHT22;62506;46.070;14.492;2023-07-13T06:57:09;25.50;65.10
64718;DHT22;62506;46.070;14.492;2023-07-13T06:59:35;25.50;65.10
64718;DHT22;62506;46.070;14.492;2023-07-13T07:02:00;25.50;65.00
64718;DHT22;62506;46.070;14.492;2023-07-13T07:04:26;25.50;66.00
64718;DHT22;62506;46.070;14.492;2023-07-13T07:06:52;25.50;65.00
64718;DHT22;62506;46.070;14.492;2023-07-13T07:09:17;25.60;65.00
64718;DHT22;62506;46.070;14.492;2023-07-13T07:11:43;25.60;65.00
64718;DHT22;62506;46.070;14.492;2023-07-13T07:14:08;25.60;64.90
64718;DHT22;62506;46.070;14.492;2023-07-13T07:16:34;25.60;64.80
64718;DHT22;62506;46.070;14.492;2023-07-13T07:18:59;25.60;64.80
64718;DHT22;62506;46.070;14.492;2023-07-13T07:21:25;25.70;64.80
64718;DHT22;62506;46.070;14.492;2023-07-13T07:23:51;25.60;64.80
64718;DHT22;62506;46.070;14.492;2023-07-13T07:26:17;25.70;64.80
64718;DHT22;62506;46.070;14.492;2023-07-13T07:28:43;25.70;64.70
64718;DHT22;62506;46.070;14.492;2023-07-13T07:31:08;25.70;64.60
64718;DHT22;62506;46.070;14.492;2023-07-13T07:33:34;25.70;64.60
64718;DHT22;62506;46.070;14.492;2023-07-13T07:36:00;25.80;64.70
64718;DHT22;62506;46.070;14.492;2023-07-13T07:38:25;25.80;64.70
64718;DHT22;62506;46.070;14.492;2023-07-13T07:40:52;25.80;64.70
64718;DHT22;62506;46.070;14.492;2023-07-13T07:43:17;25.80;64.70
64718;DHT22;62506;46.070;14.492;2023-07-13T07:45:44;25.80;64.70
64718;DHT22;62506;46.070;14.492;2023-07-13T07:48:09;25.80;64.70
64718;DHT22;62506;46.070;14.492;2023-07-13T07:50:35;25.80;64.70
64718;DHT22;62506;46.070;14.492;2023-07-13T07:53:00;25.80;64.70
64718;DHT22;62506;46.070;14.492;2023-07-13T07:55:27;25.80;64.70
64718;DHT22;62506;46.070;14.492;2023-07-13T07:57:53;25.80;64.70
64718;DHT22;62506;46.070;14.492;2023-07-13T08:00:18;25.80;64.70
64718;DHT22;62506;46.070;14.492;2023-07-13T08:02:44;25.80;64.70
64718;DHT22;62506;46.070;14.492;2023-07-13T08:05:10;25.80;64.70
64718;DHT22;62506;46.070;14.492;2023-07-13T08:07:36;25.80;64.60
64718;DHT22;62506;46.070;14.492;2023-07-13T08:10:02;25.80;64.60
64718;DHT22;62506;46.070;14.492;2023-07-13T08:12:28;25.80;64.70
64718;DHT22;62506;46.070;14.492;2023-07-13T08:14:54;25.80;64.70
64718;DHT22;62506;46.070;14.492;2023-07-13T08:17:22;25.70;64.70
64718;DHT22;62506;46.070;14.492;2023-07-13T08:19:48;25.80;64.90
64718;DHT22;62506;46.070;14.492;2023-07-13T08:22:13;25.70;64.80
64718;DHT22;62506;46.070;14.492;2023-07-13T08:24:39;25.70;64.90
64718;DHT22;62506;46.070;14.492;2023-07-13T08:27:05;25.70;64.80
64718;DHT22;62506;46.070;14.492;2023-07-13T08:29:30;25.80;64.90
64718;DHT22;62506;46.070;14.492;2023-07-13T08:31:59;25.80;65.00
64718;DHT22;62506;46.070;14.492;2023-07-13T08:34:24;25.70;64.90
64718;DHT22;62506;46.070;14.492;2023-07-13T08:36:50;25.70;64.90
64718;DHT22;62506;46.070;14.492;2023-07-13T08:39:15;25.70;64.80
64718;DHT22;62506;46.070;14.492;2023-07-13T08:41:41;25.70;64.80
64718;DHT22;62506;46.070;14.492;2023-07-13T08:44:10;25.70;64.80
64718;DHT22;62506;46.070;14.492;2023-07-13T08:46:42;25.70;65.00
64718;DHT22;62506;46.070;14.492;2023-07-13T08:49:10;25.70;65.00
64718;DHT22;62506;46.070;14.492;2023-07-13T08:54:04;25.70;64.90
64718;DHT22;62506;46.070;14.492;2023-07-13T08:56:33;25.70;64.80
64718;DHT22;62506;46.070;14.492;2023-07-13T08:59:05;25.70;64.80
64718;DHT22;62506;46.070;14.492;2023-07-13T09:04:16;25.80;64.80
64718;DHT22;62506;46.070;14.492;2023-07-13T09:06:48;25.80;64.80
64718;DHT22;62506;46.070;14.492;2023-07-13T09:09:19;25.80;65.00
64718;DHT22;62506;46.070;14.492;2023-07-13T09:11:50;25.80;64.90
64718;DHT22;62506;46.070;14.492;2023-07-13T09:14:34;25.80;65.00
64718;DHT22;62506;46.070;14.492;2023-07-13T09:17:03;25.80;64.80
64718;DHT22;62506;46.070;14.492;2023-07-13T09:19:30;25.80;65.00
64718;DHT22;62506;46.070;14.492;2023-07-13T09:21:57;25.80;64.80
64718;DHT22;62506;46.070;14.492;2023-07-13T09:24:34;25.80;64.80
64718;DHT22;62506;46.070;14.492;2023-07-13T09:27:01;25.90;64.90
64718;DHT22;62506;46.070;14.492;2023-07-13T09:29:31;25.80;64.70
64718;DHT22;62506;46.070;14.492;2023-07-13T09:31:58;25.90;64.70
64718;DHT22;62506;46.070;14.492;2023-07-13T09:34:26;25.80;64.70
64718;DHT22;62506;46.070;14.492;2023-07-13T09:36:52;25.90;64.70
64718;DHT22;62506;46.070;14.492;2023-07-13T09:44:16;25.90;64.80
64718;DHT22;62506;46.070;14.492;2023-07-13T09:46:51;25.80;64.70
64718;DHT22;62506;46.070;14.492;2023-07-13T09:49:18;25.90;64.70
64718;DHT22;62506;46.070;14.492;2023-07-13T09:51:44;25.90;64.70
64718;DHT22;62506;46.070;14.492;2023-07-13T09:54:19;25.90;64.60
64718;DHT22;62506;46.070;14.492;2023-07-13T09:56:45;25.90;64.70
64718;DHT22;62506;46.070;14.492;2023-07-13T09:59:18;25.90;64.60
64718;DHT22;62506;46.070;14.492;2023-07-13T10:01:44;25.90;64.70
64718;DHT22;62506;46.070;14.492;2023-07-13T10:04:10;25.90;64.70
64718;DHT22;62506;46.070;14.492;2023-07-13T10:06:38;25.90;64.70
64718;DHT22;62506;46.070;14.492;2023-07-13T10:09:04;25.90;64.60
64718;DHT22;62506;46.070;14.492;2023-07-13T10:11:34;25.90;64.50
64718;DHT22;62506;46.070;14.492;2023-07-13T10:14:01;25.90;64.60
64718;DHT22;62506;46.070;14.492;2023-07-13T10:16:33;25.90;64.50
64718;DHT22;62506;46.070;14.492;2023-07-13T10:19:11;25.90;64.50
64718;DHT22;62506;46.070;14.492;2023-07-13T10:21:39;25.90;64.50
64718;DHT22;62506;46.070;14.492;2023-07-13T10:24:15;25.90;64.50
64718;DHT22;62506;46.070;14.492;2023-07-13T10:26:43;25.90;64.50
64718;DHT22;62506;46.070;14.492;2023-07-13T10:29:12;25.90;64.70
64718;DHT22;62506;46.070;14.492;2023-07-13T10:31:39;25.90;64.70
64718;DHT22;62506;46.070;14.492;2023-07-13T10:34:08;25.90;64.60
64718;DHT22;62506;46.070;14.492;2023-07-13T10:36:44;25.90;64.60
64718;DHT22;62506;46.070;14.492;2023-07-13T10:39:13;25.90;64.70
64718;DHT22;62506;46.070;14.492;2023-07-13T10:41:40;25.90;64.70
64718;DHT22;62506;46.070;14.492;2023-07-13T10:44:09;25.90;64.70
64718;DHT22;62506;46.070;14.492;2023-07-13T10:46:37;25.80;64.60
64718;DHT22;62506;46.070;14.492;2023-07-13T10:49:04;25.80;64.70
64718;DHT22;62506;46.070;14.492;2023-07-13T10:51:30;25.80;64.70
64718;DHT22;62506;46.070;14.492;2023-07-13T10:56:42;25.80;64.70
64718;DHT22;62506;46.070;14.492;2023-07-13T11:01:57;25.80;64.70
64718;DHT22;62506;46.070;14.492;2023-07-13T11:04:23;25.80;64.70
64718;DHT22;62506;46.070;14.492;2023-07-13T11:06:52;25.80;64.70
64718;DHT22;62506;46.070;14.492;2023-07-13T11:09:33;25.80;64.60
64718;DHT22;62506;46.070;14.492;2023-07-13T11:12:00;25.80;64.70
64718;DHT22;62506;46.070;14.492;2023-07-13T11:14:30;25.80;64.70
64718;DHT22;62506;46.070;14.492;2023-07-13T11:17:02;25.80;64.70
64718;DHT22;62506;46.070;14.492;2023-07-13T11:19:45;25.80;64.70
64718;DHT22;62506;46.070;14.492;2023-07-13T11:22:16;25.80;64.70
64718;DHT22;62506;46.070;14.492;2023-07-13T11:27:30;25.80;64.70
64718;DHT22;62506;46.070;14.492;2023-07-13T11:32:45;25.80;64.50
64718;DHT22;62506;46.070;14.492;2023-07-13T11:35:16;25.80;64.50
64718;DHT22;62506;46.070;14.492;2023-07-13T11:37:44;25.90;64.70
64718;DHT22;62506;46.070;14.492;2023-07-13T11:40:14;25.90;64.60
64718;DHT22;62506;46.070;14.492;2023-07-13T11:42:40;25.90;64.60
64718;DHT22;62506;46.070;14.492;2023-07-13T11:45:12;25.90;64.70
64718;DHT22;62506;46.070;14.492;2023-07-13T11:47:43;25.90;64.60
64718;DHT22;62506;46.070;14.492;2023-07-13T11:50:16;25.90;64.60
64718;DHT22;62506;46.070;14.492;2023-07-13T11:52:42;25.90;64.60
64718;DHT22;62506;46.070;14.492;2023-07-13T11:55:13;25.90;64.70
64718;DHT22;62506;46.070;14.492;2023-07-13T11:57:41;25.90;64.50
64718;DHT22;62506;46.070;14.492;2023-07-13T12:00:13;25.90;64.50
64718;DHT22;62506;46.070;14.492;2023-07-13T12:02:41;25.90;64.60
64718;DHT22;62506;46.070;14.492;2023-07-13T12:05:09;25.90;64.50
64718;DHT22;62506;46.070;14.492;2023-07-13T12:07:37;25.90;64.50
64718;DHT22;62506;46.070;14.492;2023-07-13T12:12:29;25.90;65.10
64718;DHT22;62506;46.070;14.492;2023-07-13T12:14:55;25.90;64.70
64718;DHT22;62506;46.070;14.492;2023-07-13T12:17:23;25.90;64.50
64718;DHT22;62506;46.070;14.492;2023-07-13T12:19:49;25.90;65.50
64718;DHT22;62506;46.070;14.492;2023-07-13T12:22:16;25.90;64.90
64718;DHT22;62506;46.070;14.492;2023-07-13T12:24:41;25.90;64.90
64718;DHT22;62506;46.070;14.492;2023-07-13T12:27:21;25.90;64.70
64718;DHT22;62506;46.070;14.492;2023-07-13T12:29:52;25.90;64.70
64718;DHT22;62506;46.070;14.492;2023-07-13T12:32:19;25.90;64.60
64718;DHT22;62506;46.070;14.492;2023-07-13T12:34:54;25.90;64.70
64718;DHT22;62506;46.070;14.492;2023-07-13T12:37:24;25.90;64.60
64718;DHT22;62506;46.070;14.492;2023-07-13T12:39:51;25.90;64.70
64718;DHT22;62506;46.070;14.492;2023-07-13T12:47:23;25.90;64.90
64718;DHT22;62506;46.070;14.492;2023-07-13T12:49:58;25.90;65.00
64718;DHT22;62506;46.070;14.492;2023-07-13T12:52:28;25.90;65.00
64718;DHT22;62506;46.070;14.492;2023-07-13T12:55:10;25.90;65.00
64718;DHT22;62506;46.070;14.492;2023-07-13T12:57:40;25.90;65.00
64718;DHT22;62506;46.070;14.492;2023-07-13T13:02:50;25.90;65.00
64718;DHT22;62506;46.070;14.492;2023-07-13T13:05:16;25.90;65.10
64718;DHT22;62506;46.070;14.492;2023-07-13T13:07:41;25.90;65.20
64718;DHT22;62506;46.070;14.492;2023-07-13T13:10:13;25.90;65.10
64718;DHT22;62506;46.070;14.492;2023-07-13T13:12:39;25.90;65.20
64718;DHT22;62506;46.070;14.492;2023-07-13T13:15:08;25.90;65.10
64718;DHT22;62506;46.070;14.492;2023-07-13T13:17:33;25.90;65.10
64718;DHT22;62506;46.070;14.492;2023-07-13T13:19:59;25.80;65.00
64718;DHT22;62506;46.070;14.492;2023-07-13T13:22:25;25.90;65.20
64718;DHT22;62506;46.070;14.492;2023-07-13T13:24:50;25.90;65.10
64718;DHT22;62506;46.070;14.492;2023-07-13T13:27:22;25.90;65.10
64718;DHT22;62506;46.070;14.492;2023-07-13T13:29:49;25.80;65.00
64718;DHT22;62506;46.070;14.492;2023-07-13T13:32:16;25.80;65.30
64718;DHT22;62506;46.070;14.492;2023-07-13T13:34:42;25.90;66.00
64718;DHT22;62506;46.070;14.492;2023-07-13T13:37:16;25.80;69.90
64718;DHT22;62506;46.070;14.492;2023-07-13T13:39:43;25.70;70.30
64718;DHT22;62506;46.070;14.492;2023-07-13T13:42:09;25.70;71.10
64718;DHT22;62506;46.070;14.492;2023-07-13T13:44:35;25.60;71.60
64718;DHT22;62506;46.070;14.492;2023-07-13T13:47:00;25.60;72.50
64718;DHT22;62506;46.070;14.492;2023-07-13T13:49:27;25.70;72.60
64718;DHT22;62506;46.070;14.492;2023-07-13T13:51:53;25.70;72.10
64718;DHT22;62506;46.070;14.492;2023-07-13T13:54:20;25.60;72.20
64718;DHT22;62506;46.070;14.492;2023-07-13T13:56:47;25.70;72.50
64718;DHT22;62506;46.070;14.492;2023-07-13T13:59:13;25.60;73.20
64718;DHT22;62506;46.070;14.492;2023-07-13T14:01:39;25.60;73.90
64718;DHT22;62506;46.070;14.492;2023-07-13T14:04:06;25.60;74.30
64718;DHT22;62506;46.070;14.492;2023-07-13T14:06:32;25.60;74.10
64718;DHT22;62506;46.070;14.492;2023-07-13T14:08:58;25.60;73.90
64718;DHT22;62506;46.070;14.492;2023-07-13T14:11:24;25.60;73.60
64718;DHT22;62506;46.070;14.492;2023-07-13T14:13:52;25.70;73.90
64718;DHT22;62506;46.070;14.492;2023-07-13T14:16:19;25.70;72.80
64718;DHT22;62506;46.070;14.492;2023-07-13T14:18:46;25.70;72.30
64718;DHT22;62506;46.070;14.492;2023-07-13T14:21:15;25.80;72.10
64718;DHT22;62506;46.070;14.492;2023-07-13T14:23:43;25.80;71.70
64718;DHT22;62506;46.070;14.492;2023-07-13T14:26:10;25.80;71.50
64718;DHT22;62506;46.070;14.492;2023-07-13T14:28:36;25.80;71.20
64718;DHT22;62506;46.070;14.492;2023-07-13T14:31:04;25.80;70.90
64718;DHT22;62506;46.070;14.492;2023-07-13T14:33:29;25.80;70.70
64718;DHT22;62506;46.070;14.492;2023-07-13T14:35:55;25.80;70.60
64718;DHT22;62506;46.070;14.492;2023-07-13T14:38:20;25.80;70.50
64718;DHT22;62506;46.070;14.492;2023-07-13T14:40:46;25.80;70.30
64718;DHT22;62506;46.070;14.492;2023-07-13T14:43:12;25.90;70.30
64718;DHT22;62506;46.070;14.492;2023-07-13T14:45:41;25.90;70.20
64718;DHT22;62506;46.070;14.492;2023-07-13T14:48:13;25.80;70.10
64718;DHT22;62506;46.070;14.492;2023-07-13T14:50:39;25.80;70.00
64718;DHT22;62506;46.070;14.492;2023-07-13T14:53:09;25.80;69.90
64718;DHT22;62506;46.070;14.492;2023-07-13T14:55:34;25.90;69.90
64718;DHT22;62506;46.070;14.492;2023-07-13T14:58:00;25.80;69.70
64718;DHT22;62506;46.070;14.492;2023-07-13T15:00:26;25.80;69.70
64718;DHT22;62506;46.070;14.492;2023-07-13T15:02:53;25.80;69.70
64718;DHT22;62506;46.070;14.492;2023-07-13T15:05:21;25.80;69.50
64718;DHT22;62506;46.070;14.492;2023-07-13T15:07:48;25.80;69.50
64718;DHT22;62506;46.070;14.492;2023-07-13T15:10:15;25.80;69.50
64718;DHT22;62506;46.070;14.492;2023-07-13T15:12:41;25.80;70.20
64718;DHT22;62506;46.070;14.492;2023-07-13T15:15:07;25.80;69.30
64718;DHT22;62506;46.070;14.492;2023-07-13T15:17:35;25.80;69.40
64718;DHT22;62506;46.070;14.492;2023-07-13T15:20:04;25.80;69.20
64718;DHT22;62506;46.070;14.492;2023-07-13T15:22:48;25.80;69.50
64718;DHT22;62506;46.070;14.492;2023-07-13T15:25:17;25.80;71.20
64718;DHT22;62506;46.070;14.492;2023-07-13T15:43:16;25.40;73.70
64718;DHT22;62506;46.070;14.492;2023-07-13T15:45:41;25.50;71.80
64718;DHT22;62506;46.070;14.492;2023-07-13T15:48:12;25.60;71.90
64718;DHT22;62506;46.070;14.492;2023-07-13T15:50:42;25.70;71.60
64718;DHT22;62506;46.070;14.492;2023-07-13T15:53:08;25.80;71.50
64718;DHT22;62506;46.070;14.492;2023-07-13T15:55:36;25.80;71.20
64718;DHT22;62506;46.070;14.492;2023-07-13T15:58:02;25.80;72.00
64718;DHT22;62506;46.070;14.492;2023-07-13T16:00:27;25.80;72.60